sensor_id;sensor_type;location;lat;lon;timestamp;pressure;altitude;pressure_sealevel;temperature;humidity
18678;BME280;9469;51.114;13.914;2023-02-16T00:00:58;99667.16;;;0.82;100.00
18678;BME280;9469;51.114;13.914;2023-02-16T00:06:04;99648.28;;;0.73;100.00
18678;BME280;9469;51.114;13.914;2023-02-16T00:11:20;99673.09;;;0.70;100.00
18678;BME280;9469;51.114;13.914;2023-02-16T00:16:39;99660.00;;;0.70;100.00
18678;BME280;9469;51.114;13.914;2023-02-16T00:21:45;99654.06;;;0.57;100.00
18678;BME280;9469;51.114;13.914;2023-02-16T00:26:53;99653.53;;;0.73;100.00
18678;BME280;9469;51.114;13.914;2023-02-16T00:32:00;99668.34;;;0.86;100.00
18678;BME280;9469;51.114;13.914;2023-02-16T00:37:10;99677.84;;;0.80;100.00
18678;BME280;9469;51.114;13.914;2023-02-16T00:42:20;99665.75;;;0.54;100.00
18678;BME280;9469;51.114;13.914;2023-02-16T00:47:29;99660.50;;;0.54;100.00
18678;BME280;9469;51.114;13.914;2023-02-16T00:52:37;99661.19;;;0.75;100.00
18678;BME280;9469;51.114;13.914;2023-02-16T00:57:48;99642.50;;;0.40;100.00
18678;BME280;9469;51.114;13.914;2023-02-16T01:02:59;99643.34;;;0.34;100.00
18678;BME280;9469;51.114;13.914;2023-02-16T01:08:09;99642.97;;;0.30;100.00
18678;BME280;9469;51.114;13.914;2023-02-16T01:13:30;99647.25;;;0.25;100.00
18678;BME280;9469;51.114;13.914;2023-02-16T01:18:37;99639.75;;;0.28;100.00
18678;BME280;9469;51.114;13.914;2023-02-16T01:23:42;99641.19;;;0.24;100.00
18678;BME280;9469;51.114;13.914;2023-02-16T01:28:50;99636.97;;;0.23;100.00
18678;BME280;9469;51.114;13.914;2023-02-16T01:33:55;99639.38;;;0.25;100.00
18678;BME280;9469;51.114;13.914;2023-02-16T01:39:00;99632.00;;;0.15;100.00
18678;BME280;9469;51.114;13.914;2023-02-16T01:44:14;99636.78;;;0.18;100.00
18678;BME280;9469;51.114;13.914;2023-02-16T01:49:20;99629.78;;;0.12;100.00
18678;BME280;9469;51.114;13.914;2023-02-16T01:54:33;99625.34;;;0.13;100.00
18678;BME280;9469;51.114;13.914;2023-02-16T02:00:05;99627.38;;;0.11;100.00
18678;BME280;9469;51.114;13.914;2023-02-16T02:05:21;99617.25;;;0.21;100.00
18678;BME280;9469;51.114;13.914;2023-02-16T02:10:45;99626.78;;;0.09;100.00
18678;BME280;9469;51.114;13.914;2023-02-16T02:15:58;99621.72;;;0.14;100.00
18678;BME280;9469;51.114;13.914;2023-02-16T02:21:24;99618.09;;;0.15;100.00
18678;BME280;9469;51.114;13.914;2023-02-16T02:27:02;99628.97;;;0.12;100.00
18678;BME280;9469;51.114;13.914;2023-02-16T02:32:19;99623.38;;;0.08;100.00
18678;BME280;9469;51.114;13.914;2023-02-16T02:37:39;99627.03;;;0.00;100.00
18678;BME280;9469;51.114;13.914;2023-02-16T02:42:58;99614.56;;;-0.04;100.00
18678;BME280;9469;51.114;13.914;2023-02-16T02:48:05;99612.31;;;0.06;100.00
18678;BME280;9469;51.114;13.914;2023-02-16T02:53:12;99610.38;;;-0.05;100.00
18678;BME280;9469;51.114;13.914;2023-02-16T02:58:23;99607.75;;;-0.05;100.00
18678;BME280;9469;51.114;13.914;2023-02-16T03:03:44;99606.88;;;0.08;100.00
18678;BME280;9469;51.114;13.914;2023-02-16T03:08:54;99615.81;;;-0.13;100.00
18678;BME280;9469;51.114;13.914;2023-02-16T03:14:08;99611.63;;;-0.14;100.00
18678;BME280;9469;51.114;13.914;2023-02-16T03:19:16;99612.22;;;-0.12;100.00
18678;BME280;9469;51.114;13.914;2023-02-16T03:24:34;99603.34;;;-0.05;100.00
18678;BME280;9469;51.114;13.914;2023-02-16T03:29:55;99612.22;;;-0.12;100.00
18678;BME280;9469;51.114;13.914;2023-02-16T03:35:01;99609.00;;;-0.14;100.00
18678;BME280;9469;51.114;13.914;2023-02-16T03:40:09;99607.31;;;-0.02;100.00
18678;BME280;9469;51.114;13.914;2023-02-16T03:45:30;99626.69;;;-0.10;100.00
18678;BME280;9469;51.114;13.914;2023-02-16T03:50:36;99625.25;;;-0.06;100.00
18678;BME280;9469;51.114;13.914;2023-02-16T03:55:44;99624.28;;;-0.18;100.00
18678;BME280;9469;51.114;13.914;2023-02-16T04:00:51;99619.06;;;-0.18;100.00
18678;BME280;9469;51.114;13.914;2023-02-16T04:05:56;99619.88;;;-0.17;100.00
18678;BME280;9469;51.114;13.914;2023-02-16T04:11:02;99623.03;;;-0.09;100.00
18678;BME280;9469;51.114;13.914;2023-02-16T04:16:30;99609.03;;;-0.21;100.00
18678;BME280;9469;51.114;13.914;2023-02-16T04:21:35;99620.66;;;-0.10;100.00
18678;BME280;9469;51.114;13.914;2023-02-16T04:26:41;99615.50;;;-0.23;100.00
18678;BME280;9469;51.114;13.914;2023-02-16T04:31:49;99607.81;;;-0.18;100.00
18678;BME280;9469;51.114;13.914;2023-02-16T04:36:54;99598.84;;;0.03;100.00
18678;BME280;9469;51.114;13.914;2023-02-16T04:41:59;99591.16;;;0.08;100.00
18678;BME280;9469;51.114;13.914;2023-02-16T04:47:08;99602.53;;;-0.05;100.00
18678;BME280;9469;51.114;13.914;2023-02-16T04:52:14;99601.63;;;0.08;100.00
18678;BME280;9469;51.114;13.914;2023-02-16T04:57:19;99599.16;;;0.19;100.00
18678;BME280;9469;51.114;13.914;2023-02-16T05:02:27;99603.53;;;0.25;100.00
18678;BME280;9469;51.114;13.914;2023-02-16T05:07:32;99605.16;;;0.26;100.00
18678;BME280;9469;51.114;13.914;2023-02-16T05:12:37;99608.13;;;-0.02;100.00
18678;BME280;9469;51.114;13.914;2023-02-16T05:17:57;99604.13;;;-0.04;100.00
18678;BME280;9469;51.114;13.914;2023-02-16T05:23:03;99610.63;;;-0.20;100.00
18678;BME280;9469;51.114;13.914;2023-02-16T05:28:08;99607.84;;;-0.25;100.00
18678;BME280;9469;51.114;13.914;2023-02-16T05:33:16;99616.94;;;-0.27;100.00
18678;BME280;9469;51.114;13.914;2023-02-16T05:38:20;99617.31;;;-0.30;100.00
18678;BME280;9469;51.114;13.914;2023-02-16T05:43:26;99619.16;;;-0.37;100.00
18678;BME280;9469;51.114;13.914;2023-02-16T05:48:35;99617.59;;;-0.51;100.00
18678;BME280;9469;51.114;13.914;2023-02-16T05:53:41;99626.66;;;-0.54;100.00
18678;BME280;9469;51.114;13.914;2023-02-16T05:58:46;99624.63;;;-0.52;100.00
18678;BME280;9469;51.114;13.914;2023-02-16T06:03:54;99631.69;;;-0.52;100.00
18678;BME280;9469;51.114;13.914;2023-02-16T06:08:59;99631.59;;;-0.26;100.00
18678;BME280;9469;51.114;13.914;2023-02-16T06:14:06;99629.63;;;-0.37;100.00
18678;BME280;9469;51.114;13.914;2023-02-16T06:19:16;99621.59;;;-0.42;100.00
18678;BME280;9469;51.114;13.914;2023-02-16T06:24:23;99629.06;;;-0.52;100.00
18678;BME280;9469;51.114;13.914;2023-02-16T06:29:29;99636.09;;;-0.46;100.00
18678;BME280;9469;51.114;13.914;2023-02-16T06:34:37;99631.69;;;-0.52;100.00
18678;BME280;9469;51.114;13.914;2023-02-16T06:39:44;99639.69;;;-0.47;100.00
18678;BME280;9469;51.114;13.914;2023-02-16T06:44:54;99614.41;;;-0.53;100.00
18678;BME280;9469;51.114;13.914;2023-02-16T06:50:10;99637.28;;;-0.42;100.00
18678;BME280;9469;51.114;13.914;2023-02-16T06:55:16;99627.19;;;-0.32;100.00
18678;BME280;9469;51.114;13.914;2023-02-16T07:00:21;99635.81;;;-0.25;100.00
18678;BME280;9469;51.114;13.914;2023-02-16T07:05:30;99631.72;;;-0.15;100.00
18678;BME280;9469;51.114;13.914;2023-02-16T07:10:35;99625.69;;;-0.15;100.00
18678;BME280;9469;51.114;13.914;2023-02-16T07:15:51;99631.28;;;-0.05;100.00
18678;BME280;9469;51.114;13.914;2023-02-16T07:20:58;99617.34;;;0.08;100.00
18678;BME280;9469;51.114;13.914;2023-02-16T07:26:04;99616.88;;;0.17;100.00
18678;BME280;9469;51.114;13.914;2023-02-16T07:31:11;99610.63;;;0.18;100.00
18678;BME280;9469;51.114;13.914;2023-02-16T07:36:20;99608.00;;;0.18;100.00
18678;BME280;9469;51.114;13.914;2023-02-16T07:41:27;99609.28;;;0.40;100.00
18678;BME280;9469;51.114;13.914;2023-02-16T07:46:40;99624.09;;;0.78;100.00
18678;BME280;9469;51.114;13.914;2023-02-16T07:51:49;99629.06;;;0.86;100.00
18678;BME280;9469;51.114;13.914;2023-02-16T07:57:01;99631.53;;;0.81;100.00
18678;BME280;9469;51.114;13.914;2023-02-16T08:02:21;99627.94;;;1.36;100.00
18678;BME280;9469;51.114;13.914;2023-02-16T08:07:31;99634.97;;;1.42;100.00
18678;BME280;9469;51.114;13.914;2023-02-16T08:12:36;99633.34;;;1.23;100.00
18678;BME280;9469;51.114;13.914;2023-02-16T08:17:42;99639.00;;;1.38;100.00
18678;BME280;9469;51.114;13.914;2023-02-16T08:28:39;99636.81;;;2.49;100.00
18678;BME280;9469;51.114;13.914;2023-02-16T08:34:07;99619.41;;;4.48;100.00
18678;BME280;9469;51.114;13.914;2023-02-16T08:39:37;99627.13;;;3.93;100.00
18678;BME280;9469;51.114;13.914;2023-02-16T08:44:49;99624.41;;;5.33;98.84
18678;BME280;9469;51.114;13.914;2023-02-16T08:49:55;99621.69;;;6.68;94.24
18678;BME280;9469;51.114;13.914;2023-02-16T08:55:00;99631.63;;;5.80;97.43
18678;BME280;9469;51.114;13.914;2023-02-16T09:00:10;99625.16;;;6.41;96.88
18678;BME280;9469;51.114;13.914;2023-02-16T09:05:28;99608.16;;;6.96;94.02
18678;BME280;9469;51.114;13.914;2023-02-16T09:10:41;99619.13;;;6.78;95.42
18678;BME280;9469;51.114;13.914;2023-02-16T09:15:51;99600.41;;;7.31;91.25
18678;BME280;9469;51.114;13.914;2023-02-16T09:21:08;99604.44;;;7.39;90.01
18678;BME280;9469;51.114;13.914;2023-02-16T09:26:17;99594.41;;;8.28;87.26
18678;BME280;9469;51.114;13.914;2023-02-16T09:31:27;99585.41;;;8.44;86.00
18678;BME280;9469;51.114;13.914;2023-02-16T09:36:45;99587.19;;;9.93;81.49
18678;BME280;9469;51.114;13.914;2023-02-16T09:42:15;99571.66;;;12.19;69.58
18678;BME280;9469;51.114;13.914;2023-02-16T09:47:31;99572.97;;;12.86;68.07
18678;BME280;9469;51.114;13.914;2023-02-16T09:52:39;99578.97;;;11.01;74.53
18678;BME280;9469;51.114;13.914;2023-02-16T09:57:54;99576.63;;;10.94;75.73
18678;BME280;9469;51.114;13.914;2023-02-16T10:03:24;99573.47;;;12.88;67.20
18678;BME280;9469;51.114;13.914;2023-02-16T10:09:08;99570.03;;;12.56;67.72
18678;BME280;9469;51.114;13.914;2023-02-16T10:14:40;99577.78;;;12.20;69.43
18678;BME280;9469;51.114;13.914;2023-02-16T10:19:56;99572.94;;;12.41;69.54
18678;BME280;9469;51.114;13.914;2023-02-16T10:25:08;99587.91;;;10.81;76.85
18678;BME280;9469;51.114;13.914;2023-02-16T10:30:15;99575.06;;;10.88;77.27
18678;BME280;9469;51.114;13.914;2023-02-16T10:35:31;99561.78;;;13.93;65.48
18678;BME280;9469;51.114;13.914;2023-02-16T10:40:48;99568.38;;;11.43;73.94
18678;BME280;9469;51.114;13.914;2023-02-16T10:45:56;99568.78;;;11.55;75.10
18678;BME280;9469;51.114;13.914;2023-02-16T10:51:07;99563.69;;;11.53;76.14
18678;BME280;9469;51.114;13.914;2023-02-16T10:56:35;99549.09;;;12.63;72.35
18678;BME280;9469;51.114;13.914;2023-02-16T11:01:44;99546.69;;;13.61;65.02
18678;BME280;9469;51.114;13.914;2023-02-16T11:07:09;99541.34;;;14.47;62.21
18678;BME280;9469;51.114;13.914;2023-02-16T11:12:38;99535.75;;;13.09;66.14
18678;BME280;9469;51.114;13.914;2023-02-16T11:17:49;99535.09;;;12.98;63.61
18678;BME280;9469;51.114;13.914;2023-02-16T11:23:19;99536.34;;;13.19;64.30
18678;BME280;9469;51.114;13.914;2023-02-16T11:28:31;99524.56;;;14.85;60.49
18678;BME280;9469;51.114;13.914;2023-02-16T11:33:37;99523.34;;;14.25;62.78
18678;BME280;9469;51.114;13.914;2023-02-16T11:38:54;99517.22;;;13.53;62.83
18678;BME280;9469;51.114;13.914;2023-02-16T11:44:02;99510.97;;;13.57;63.10
18678;BME280;9469;51.114;13.914;2023-02-16T11:49:29;99504.53;;;13.58;64.29
18678;BME280;9469;51.114;13.914;2023-02-16T11:54:47;99501.22;;;14.55;62.13
18678;BME280;9469;51.114;13.914;2023-02-16T11:59:54;99489.84;;;14.27;61.68
18678;BME280;9469;51.114;13.914;2023-02-16T12:05:19;99495.56;;;13.54;63.27
18678;BME280;9469;51.114;13.914;2023-02-16T12:10:38;99475.88;;;14.83;60.82
18678;BME280;9469;51.114;13.914;2023-02-16T12:15:55;99485.34;;;13.92;62.73
18678;BME280;9469;51.114;13.914;2023-02-16T12:21:13;99464.81;;;14.54;61.65
18678;BME280;9469;51.114;13.914;2023-02-16T12:26:37;99464.38;;;14.30;62.82
18678;BME280;9469;51.114;13.914;2023-02-16T12:31:54;99460.38;;;14.72;60.90
18678;BME280;9469;51.114;13.914;2023-02-16T12:37:09;99461.81;;;14.78;61.12
18678;BME280;9469;51.114;13.914;2023-02-16T12:42:37;99467.22;;;14.11;61.79
18678;BME280;9469;51.114;13.914;2023-02-16T12:47:54;99459.22;;;14.64;62.39
18678;BME280;9469;51.114;13.914;2023-02-16T12:53:06;99458.41;;;14.11;61.99
18678;BME280;9469;51.114;13.914;2023-02-16T12:58:20;99450.38;;;14.94;61.01
18678;BME280;9469;51.114;13.914;2023-02-16T13:03:33;99447.25;;;15.01;62.87
18678;BME280;9469;51.114;13.914;2023-02-16T13:08:47;99439.78;;;14.50;62.29
18678;BME280;9469;51.114;13.914;2023-02-16T13:14:00;99433.34;;;14.51;62.40
18678;BME280;9469;51.114;13.914;2023-02-16T13:19:10;99437.28;;;14.54;61.45
18678;BME280;9469;51.114;13.914;2023-02-16T13:24:25;99430.25;;;14.66;61.96
18678;BME280;9469;51.114;13.914;2023-02-16T13:29:49;99421.47;;;14.74;62.58
18678;BME280;9469;51.114;13.914;2023-02-16T13:35:32;99419.25;;;15.33;61.20
18678;BME280;9469;51.114;13.914;2023-02-16T13:40:55;99416.53;;;14.68;62.23
18678;BME280;9469;51.114;13.914;2023-02-16T13:46:17;99427.22;;;14.06;63.38
18678;BME280;9469;51.114;13.914;2023-02-16T13:51:39;99423.72;;;13.97;64.88
18678;BME280;9469;51.114;13.914;2023-02-16T13:56:49;99423.25;;;14.96;61.55
18678;BME280;9469;51.114;13.914;2023-02-16T14:01:57;99428.00;;;14.29;62.14
18678;BME280;9469;51.114;13.914;2023-02-16T14:07:21;99423.72;;;14.28;64.78
18678;BME280;9469;51.114;13.914;2023-02-16T14:12:38;99428.97;;;15.12;61.64
18678;BME280;9469;51.114;13.914;2023-02-16T14:17:47;99420.97;;;14.72;61.47
18678;BME280;9469;51.114;13.914;2023-02-16T14:22:54;99424.94;;;14.44;61.11
18678;BME280;9469;51.114;13.914;2023-02-16T14:28:04;99436.88;;;13.72;61.36
18678;BME280;9469;51.114;13.914;2023-02-16T14:33:19;99441.69;;;14.05;62.14
18678;BME280;9469;51.114;13.914;2023-02-16T14:38:27;99435.88;;;13.45;63.28
18678;BME280;9469;51.114;13.914;2023-02-16T14:43:40;99439.84;;;13.34;62.71
18678;BME280;9469;51.114;13.914;2023-02-16T14:49:05;99439.94;;;13.43;62.90
18678;BME280;9469;51.114;13.914;2023-02-16T14:54:46;99452.81;;;13.77;62.63
18678;BME280;9469;51.114;13.914;2023-02-16T14:59:58;99452.72;;;13.05;63.84
18678;BME280;9469;51.114;13.914;2023-02-16T15:05:20;99449.97;;;13.10;67.35
18678;BME280;9469;51.114;13.914;2023-02-16T15:10:27;99444.28;;;12.44;72.58
18678;BME280;9469;51.114;13.914;2023-02-16T15:15:40;99446.25;;;11.87;75.48
18678;BME280;9469;51.114;13.914;2023-02-16T15:20:52;99449.50;;;11.66;77.50
18678;BME280;9469;51.114;13.914;2023-02-16T15:26:02;99440.78;;;11.41;77.33
18678;BME280;9469;51.114;13.914;2023-02-16T15:31:13;99434.38;;;11.24;77.60
18678;BME280;9469;51.114;13.914;2023-02-16T15:36:34;99436.94;;;11.10;77.62
18678;BME280;9469;51.114;13.914;2023-02-16T15:41:45;99420.94;;;10.92;78.84
18678;BME280;9469;51.114;13.914;2023-02-16T15:47:05;99431.75;;;10.53;80.07
18678;BME280;9469;51.114;13.914;2023-02-16T15:52:16;99436.13;;;10.05;82.50
18678;BME280;9469;51.114;13.914;2023-02-16T15:57:28;99433.56;;;9.95;83.29
18678;BME280;9469;51.114;13.914;2023-02-16T16:02:37;99431.13;;;9.65;84.11
18678;BME280;9469;51.114;13.914;2023-02-16T16:07:47;99432.25;;;9.05;86.36
18678;BME280;9469;51.114;13.914;2023-02-16T16:12:57;99436.22;;;9.07;85.95
18678;BME280;9469;51.114;13.914;2023-02-16T16:18:02;99441.72;;;8.57;87.88
18678;BME280;9469;51.114;13.914;2023-02-16T16:23:25;99438.53;;;8.15;88.19
18678;BME280;9469;51.114;13.914;2023-02-16T16:28:32;99438.53;;;8.20;88.79
18678;BME280;9469;51.114;13.914;2023-02-16T16:33:53;99443.03;;;8.24;88.12
18678;BME280;9469;51.114;13.914;2023-02-16T16:39:19;99449.66;;;7.96;88.82
18678;BME280;9469;51.114;13.914;2023-02-16T16:44:32;99451.78;;;7.79;89.19
18678;BME280;9469;51.114;13.914;2023-02-16T16:49:45;99442.97;;;6.72;92.51
18678;BME280;9469;51.114;13.914;2023-02-16T16:54:57;99446.81;;;7.06;92.23
18678;BME280;9469;51.114;13.914;2023-02-16T17:00:03;99449.06;;;6.72;93.47
18678;BME280;9469;51.114;13.914;2023-02-16T17:05:08;99452.13;;;6.12;95.63
18678;BME280;9469;51.114;13.914;2023-02-16T17:10:19;99445.16;;;6.01;96.82
18678;BME280;9469;51.114;13.914;2023-02-16T17:15:36;99440.66;;;6.02;98.22
18678;BME280;9469;51.114;13.914;2023-02-16T17:20:41;99437.78;;;6.03;97.01
18678;BME280;9469;51.114;13.914;2023-02-16T17:25:51;99442.84;;;6.10;97.82
18678;BME280;9469;51.114;13.914;2023-02-16T17:30:57;99436.38;;;5.96;97.25
18678;BME280;9469;51.114;13.914;2023-02-16T17:36:03;99443.13;;;6.08;96.15
18678;BME280;9469;51.114;13.914;2023-02-16T17:41:19;99448.00;;;5.68;98.74
18678;BME280;9469;51.114;13.914;2023-02-16T17:46:24;99432.13;;;5.63;99.14
18678;BME280;9469;51.114;13.914;2023-02-16T17:51:34;99422.47;;;5.47;100.00
18678;BME280;9469;51.114;13.914;2023-02-16T17:56:46;99423.84;;;5.54;100.00
18678;BME280;9469;51.114;13.914;2023-02-16T18:01:52;99413.84;;;5.30;100.00
18678;BME280;9469;51.114;13.914;2023-02-16T18:06:57;99404.50;;;5.44;100.00
18678;BME280;9469;51.114;13.914;2023-02-16T18:12:07;99416.28;;;5.63;100.00
18678;BME280;9469;51.114;13.914;2023-02-16T18:17:12;99429.31;;;5.48;100.00
18678;BME280;9469;51.114;13.914;2023-02-16T18:22:18;99429.38;;;5.53;100.00
18678;BME280;9469;51.114;13.914;2023-02-16T18:27:25;99431.88;;;5.38;100.00
18678;BME280;9469;51.114;13.914;2023-02-16T18:32:33;99427.63;;;5.37;100.00
18678;BME280;9469;51.114;13.914;2023-02-16T18:37:41;99431.81;;;5.33;100.00
18678;BME280;9469;51.114;13.914;2023-02-16T18:42:49;99440.88;;;5.42;100.00
18678;BME280;9469;51.114;13.914;2023-02-16T18:47:54;99439.78;;;5.38;100.00
18678;BME280;9469;51.114;13.914;2023-02-16T18:52:59;99441.16;;;5.45;100.00
18678;BME280;9469;51.114;13.914;2023-02-16T18:58:09;99435.25;;;5.33;100.00
18678;BME280;9469;51.114;13.914;2023-02-16T19:03:17;99437.28;;;5.26;100.00
18678;BME280;9469;51.114;13.914;2023-02-16T19:08:22;99439.38;;;5.24;100.00
18678;BME280;9469;51.114;13.914;2023-02-16T19:13:33;99458.88;;;5.23;100.00
18678;BME280;9469;51.114;13.914;2023-02-16T19:18:39;99462.16;;;5.08;100.00
18678;BME280;9469;51.114;13.914;2023-02-16T19:23:45;99465.81;;;5.07;100.00
18678;BME280;9469;51.114;13.914;2023-02-16T19:28:53;99458.28;;;4.94;100.00
18678;BME280;9469;51.114;13.914;2023-02-16T19:34:01;99447.56;;;4.79;100.00
18678;BME280;9469;51.114;13.914;2023-02-16T19:39:06;99438.31;;;4.60;100.00
18678;BME280;9469;51.114;13.914;2023-02-16T19:44:17;99443.00;;;4.96;100.00
18678;BME280;9469;51.114;13.914;2023-02-16T19:49:22;99439.03;;;4.72;100.00
18678;BME280;9469;51.114;13.914;2023-02-16T19:54:27;99441.69;;;4.56;100.00
18678;BME280;9469;51.114;13.914;2023-02-16T19:59:36;99435.69;;;4.60;100.00
18678;BME280;9469;51.114;13.914;2023-02-16T20:04:42;99435.75;;;4.65;100.00
18678;BME280;9469;51.114;13.914;2023-02-16T20:09:47;99443.31;;;4.78;100.00
18678;BME280;9469;51.114;13.914;2023-02-16T20:14:56;99441.16;;;4.75;100.00
18678;BME280;9469;51.114;13.914;2023-02-16T20:20:01;99447.56;;;4.79;100.00
18678;BME280;9469;51.114;13.914;2023-02-16T20:25:06;99453.19;;;4.88;100.00
18678;BME280;9469;51.114;13.914;2023-02-16T20:30:18;99445.47;;;5.03;100.00
18678;BME280;9469;51.114;13.914;2023-02-16T20:35:26;99444.09;;;5.00;100.00
18678;BME280;9469;51.114;13.914;2023-02-16T20:40:31;99439.38;;;5.02;100.00
18678;BME280;9469;51.114;13.914;2023-02-16T20:45:39;99429.13;;;5.28;100.00
18678;BME280;9469;51.114;13.914;2023-02-16T20:50:52;99438.72;;;5.39;100.00
18678;BME280;9469;51.114;13.914;2023-02-16T20:56:03;99440.88;;;5.42;100.00
18678;BME280;9469;51.114;13.914;2023-02-16T21:01:14;99427.72;;;5.20;100.00
18678;BME280;9469;51.114;13.914;2023-02-16T21:06:21;99429.19;;;5.33;100.00
18678;BME280;9469;51.114;13.914;2023-02-16T21:11:26;99419.22;;;5.66;100.00
18678;BME280;9469;51.114;13.914;2023-02-16T21:16:35;99416.91;;;5.75;100.00
18678;BME280;9469;51.114;13.914;2023-02-16T21:21:42;99412.00;;;6.67;100.00
18678;BME280;9469;51.114;13.914;2023-02-16T21:26:47;99415.28;;;6.32;100.00
18678;BME280;9469;51.114;13.914;2023-02-16T21:31:54;99403.97;;;7.04;100.00
18678;BME280;9469;51.114;13.914;2023-02-16T21:37:00;99395.06;;;7.45;100.00
18678;BME280;9469;51.114;13.914;2023-02-16T21:42:07;99393.50;;;7.49;100.00
18678;BME280;9469;51.114;13.914;2023-02-16T21:47:15;99389.78;;;7.60;99.99
18678;BME280;9469;51.114;13.914;2023-02-16T21:52:33;99382.13;;;7.64;100.00
18678;BME280;9469;51.114;13.914;2023-02-16T21:57:40;99380.28;;;7.64;99.95
18678;BME280;9469;51.114;13.914;2023-02-16T22:02:49;99367.84;;;7.80;99.50
18678;BME280;9469;51.114;13.914;2023-02-16T22:07:54;99364.38;;;7.84;98.98
18678;BME280;9469;51.114;13.914;2023-02-16T22:13:00;99353.53;;;7.86;98.67
18678;BME280;9469;51.114;13.914;2023-02-16T22:18:07;99350.09;;;7.65;100.00
18678;BME280;9469;51.114;13.914;2023-02-16T22:23:12;99354.03;;;7.33;99.67
18678;BME280;9469;51.114;13.914;2023-02-16T22:28:17;99362.72;;;7.03;100.00
18678;BME280;9469;51.114;13.914;2023-02-16T22:33:25;99357.50;;;7.68;100.00
18678;BME280;9469;51.114;13.914;2023-02-16T22:38:30;99352.22;;;7.73;100.00
18678;BME280;9469;51.114;13.914;2023-02-16T22:43:35;99351.13;;;7.79;99.89
18678;BME280;9469;51.114;13.914;2023-02-16T22:48:43;99341.28;;;8.10;98.48
18678;BME280;9469;51.114;13.914;2023-02-16T22:53:48;99343.41;;;8.18;98.57
18678;BME280;9469;51.114;13.914;2023-02-16T22:58:54;99332.53;;;8.15;98.61
18678;BME280;9469;51.114;13.914;2023-02-16T23:04:01;99324.06;;;8.23;98.69
18678;BME280;9469;51.114;13.914;2023-02-16T23:09:11;99315.56;;;8.31;98.32
18678;BME280;9469;51.114;13.914;2023-02-16T23:14:18;99301.78;;;8.34;98.06
18678;BME280;9469;51.114;13.914;2023-02-16T23:19:25;99297.53;;;8.33;98.31
18678;BME280;9469;51.114;13.914;2023-02-16T23:24:31;99295.91;;;8.37;98.30
18678;BME280;9469;51.114;13.914;2023-02-16T23:29:35;99285.34;;;8.32;98.41
18678;BME280;9469;51.114;13.914;2023-02-16T23:34:43;99284.28;;;8.23;99.20
18678;BME280;9469;51.114;13.914;2023-02-16T23:39:48;99282.97;;;8.25;99.42
18678;BME280;9469;51.114;13.914;2023-02-16T23:44:53;99283.47;;;8.32;99.03
18678;BME280;9469;51.114;13.914;2023-02-16T23:50:01;99282.94;;;8.35;98.88
18678;BME280;9469;51.114;13.914;2023-02-16T23:55:07;99268.34;;;8.38;98.63
